Time,TemperatureF,DewpointF,PressureIn,WindDirection,WindDirectionDegrees,WindSpeedMPH,WindSpeedGustMPH,Humidity,HourlyPrecipIn,Conditions,Clouds,dailyrainin,SoftwareType,DateUTC
2015-07-02 00:04:00,58.7,57.8,29.69,SE,133,0.0,2.0,97,0.00,,,0.00,WeatherCatV2.01B39,2015-07-02 04:04:00,
2015-07-02 00:09:00,58.7,57.8,29.69,East,84,0.0,4.0,97,0.00,,,0.00,WeatherCatV2.01B39,2015-07-02 04:09:00,
2015-07-02 00:14:00,58.7,57.8,29.70,East,84,0.0,0.0,97,0.00,,,0.00,WeatherCatV2.01B39,2015-07-02 04:14:00,
2015-07-02 00:19:00,58.8,58.0,29.69,East,84,0.0,2.0,97,0.00,,,0.00,WeatherCatV2.01B39,2015-07-02 04:19:00,
2015-07-02 00:24:00,58.8,58.0,29.70,SE,140,0.0,4.0,97,0.00,,,0.00,WeatherCatV2.01B39,2015-07-02 04:24:00,
2015-07-02 00:29:00,58.9,58.0,29.69,NNE,29,5.0,6.0,97,0.00,,,0.00,WeatherCatV2.01B39,2015-07-02 04:29:00,
2015-07-02 00:34:00,59.2,57.8,29.70,East,91,1.0,3.0,95,0.00,,,0.00,WeatherCatV2.01B39,2015-07-02 04:34:00,
2015-07-02 00:39:00,59.1,57.7,29.70,NW,319,2.0,3.0,95,0.00,,,0.00,WeatherCatV2.01B39,2015-07-02 04:39:00,
2015-07-02 00:44:00,58.9,57.2,29.70,SSE,161,0.0,7.0,94,0.00,,,0.00,WeatherCatV2.01B39,2015-07-02 04:44:00,
2015-07-02 00:49:00,58.9,57.5,29.70,NE,51,2.0,4.0,95,0.00,,,0.00,WeatherCatV2.01B39,2015-07-02 04:49:00,
2015-07-02 00:54:00,59.0,57.0,29.71,NE,37,2.0,5.0,93,0.00,,,0.00,WeatherCatV2.01B39,2015-07-02 04:54:00,
2015-07-02 00:59:00,59.1,57.1,29.70,South,175,1.0,5.0,93,0.00,,,0.00,WeatherCatV2.01B39,2015-07-02 04:59:00,
2015-07-02 01:04:00,59.2,56.9,29.71,ENE,74,0.0,7.0,92,0.00,,,0.00,WeatherCatV2.01B39,2015-07-02 05:04:00,
2015-07-02 01:09:00,59.2,57.2,29.70,ESE,123,2.0,4.0,93,0.00,,,0.00,WeatherCatV2.01B39,2015-07-02 05:09:00,
2015-07-02 01:15:00,59.4,57.4,29.71,ESE,105,0.0,2.0,93,0.00,,,0.00,WeatherCatV2.01B39,2015-07-02 05:15:00,
2015-07-02 01:20:00,59.6,57.0,29.70,ENE,58,3.0,5.0,91,0.00,,,0.00,WeatherCatV2.01B39,2015-07-02 05:20:00,
2015-07-02 01:25:00,59.4,57.1,29.71,East,88,3.0,6.0,92,0.00,,,0.00,WeatherCatV2.01B39,2015-07-02 05:25:00,
2015-07-02 01:30:00,59.3,56.7,29.71,ENE,78,4.0,5.0,91,0.00,,,0.00,WeatherCatV2.01B39,2015-07-02 05:30:00,
2015-07-02 01:35:00,59.9,57.0,29.70,East,82,2.0,6.0,90,0.00,,,0.00,WeatherCatV2.01B39,2015-07-02 05:35:00,
2015-07-02 01:40:00,59.6,56.7,29.70,East,91,2.0,6.0,90,0.00,,,0.00,WeatherCatV2.01B39,2015-07-02 05:40:00,
2015-07-02 01:45:00,59.8,56.2,29.70,East,83,0.0,4.0,88,0.00,,,0.00,WeatherCatV2.01B39,2015-07-02 05:45:00,
2015-07-02 01:50:00,59.9,55.0,29.70,East,95,0.0,4.0,84,0.00,,,0.00,WeatherCatV2.01B39,2015-07-02 05:50:00,
2015-07-02 01:55:00,59.6,55.7,29.69,East,87,1.0,5.0,87,0.00,,,0.00,WeatherCatV2.01B39,2015-07-02 05:55:00,
2015-07-02 02:00:00,59.9,55.7,29.69,East,99,2.0,9.0,86,0.00,,,0.00,WeatherCatV2.01B39,2015-07-02 06:00:00,
2015-07-02 02:05:00,59.8,55.6,29.70,ESE,111,0.0,5.0,86,0.00,,,0.00,WeatherCatV2.01B39,2015-07-02 06:05:00,
2015-07-02 02:10:00,59.6,55.7,29.70,East,86,3.0,3.0,87,0.00,,,0.00,WeatherCatV2.01B39,2015-07-02 06:10:00,
2015-07-02 02:15:00,59.4,55.8,29.70,East,91,0.0,3.0,88,0.00,,,0.00,WeatherCatV2.01B39,2015-07-02 06:15:00,
2015-07-02 02:20:00,59.1,56.2,29.70,ENE,72,0.0,2.0,90,0.00,,,0.00,WeatherCatV2.01B39,2015-07-02 06:20:00,
2015-07-02 02:25:00,58.7,55.5,29.70,ENE,73,0.0,1.0,89,0.00,,,0.00,WeatherCatV2.01B39,2015-07-02 06:25:00,
2015-07-02 02:30:00,58.6,55.4,29.71,ESE,105,0.0,6.0,89,0.00,,,0.00,WeatherCatV2.01B39,2015-07-02 06:30:00,
2015-07-02 02:35:00,58.9,55.3,29.70,ESE,105,4.0,5.0,88,0.00,,,0.00,WeatherCatV2.01B39,2015-07-02 06:35:00,
2015-07-02 02:40:00,59.6,54.4,29.70,ENE,76,2.0,4.0,83,0.00,,,0.00,WeatherCatV2.01B39,2015-07-02 06:40:00,
2015-07-02 02:45:00,59.9,55.4,29.70,ESE,112,0.0,3.0,85,0.00,,,0.00,WeatherCatV2.01B39,2015-07-02 06:45:00,
2015-07-02 02:50:00,59.8,54.3,29.71,North,350,1.0,4.0,82,0.00,,,0.00,WeatherCatV2.01B39,2015-07-02 06:50:00,
2015-07-02 02:55:00,60.0,55.2,29.71,East,89,4.0,4.0,84,0.00,,,0.00,WeatherCatV2.01B39,2015-07-02 06:55:00,
2015-07-02 03:00:00,59.9,55.7,29.71,ESE,103,3.0,4.0,86,0.00,,,0.00,WeatherCatV2.01B39,2015-07-02 07:00:00,
2015-07-02 03:05:00,59.9,55.7,29.72,ESE,109,0.0,3.0,86,0.00,,,0.00,WeatherCatV2.01B39,2015-07-02 07:05:00,
2015-07-02 03:10:00,59.6,56.0,29.72,ESE,105,0.0,3.0,88,0.00,,,0.00,WeatherCatV2.01B39,2015-07-02 07:10:00,
2015-07-02 03:15:00,59.2,55.6,29.72,SSE,148,3.0,4.0,88,0.00,,,0.00,WeatherCatV2.01B39,2015-07-02 07:15:00,
2015-07-02 03:20:00,59.0,55.5,29.72,South,171,0.0,2.0,88,0.00,,,0.00,WeatherCatV2.01B39,2015-07-02 07:20:00,
2015-07-02 03:25:00,59.2,55.6,29.73,SSE,167,0.0,0.0,88,0.00,,,0.00,WeatherCatV2.01B39,2015-07-02 07:25:00,
2015-07-02 03:30:00,59.2,56.0,29.73,SE,145,0.0,1.0,89,0.00,,,0.00,WeatherCatV2.01B39,2015-07-02 07:30:00,
2015-07-02 03:35:00,59.1,54.9,29.73,SW,223,0.0,4.0,86,0.00,,,0.00,WeatherCatV2.01B39,2015-07-02 07:35:00,
2015-07-02 03:40:00,58.9,56.0,29.73,East,90,0.0,0.0,90,0.00,,,0.00,WeatherCatV2.01B39,2015-07-02 07:40:00,
2015-07-02 03:45:00,58.9,55.3,29.72,SSE,161,0.0,2.0,88,0.00,,,0.00,WeatherCatV2.01B39,2015-07-02 07:45:00,
2015-07-02 03:50:00,59.0,55.8,29.73,ESE,116,2.0,5.0,89,0.00,,,0.00,WeatherCatV2.01B39,2015-07-02 07:50:00,
2015-07-02 03:55:00,59.1,55.2,29.73,SW,231,1.0,5.0,87,0.00,,,0.00,WeatherCatV2.01B39,2015-07-02 07:55:00,
2015-07-02 04:00:00,59.4,55.8,29.73,East,88,0.0,3.0,88,0.00,,,0.00,WeatherCatV2.01B39,2015-07-02 08:00:00,
2015-07-02 04:05:00,59.8,55.0,29.72,East,95,1.0,6.0,84,0.00,,,0.00,WeatherCatV2.01B39,2015-07-02 08:05:00,
2015-07-02 04:10:00,59.8,55.0,29.72,East,88,2.0,2.0,84,0.00,,,0.00,WeatherCatV2.01B39,2015-07-02 08:10:00,
2015-07-02 04:15:00,59.5,55.0,29.71,SSW,203,6.0,9.0,85,0.00,,,0.00,WeatherCatV2.01B39,2015-07-02 08:15:00,
2015-07-02 04:20:00,59.6,55.4,29.71,East,99,3.0,4.0,86,0.00,,,0.00,WeatherCatV2.01B39,2015-07-02 08:20:00,
2015-07-02 04:25:00,59.3,55.1,29.72,East,100,0.0,0.0,86,0.00,,,0.00,WeatherCatV2.01B39,2015-07-02 08:25:00,
2015-07-02 04:30:00,58.9,54.4,29.71,East,83,3.0,10.0,85,0.00,,,0.00,WeatherCatV2.01B39,2015-07-02 08:30:00,
2015-07-02 04:35:00,58.8,53.7,29.72,ENE,60,0.0,2.0,83,0.00,,,0.00,WeatherCatV2.01B39,2015-07-02 08:35:00,
2015-07-02 04:40:00,59.0,53.5,29.73,ESE,111,1.0,5.0,82,0.00,,,0.00,WeatherCatV2.01B39,2015-07-02 08:40:00,
2015-07-02 04:45:00,59.3,55.1,29.73,SE,125,1.0,4.0,86,0.00,,,0.00,WeatherCatV2.01B39,2015-07-02 08:45:00,
2015-07-02 04:50:00,59.3,54.5,29.74,SW,228,0.0,4.0,84,0.00,,,0.00,WeatherCatV2.01B39,2015-07-02 08:50:00,
2015-07-02 04:55:00,59.3,54.8,29.74,NE,51,0.0,2.0,85,0.00,,,0.00,WeatherCatV2.01B39,2015-07-02 08:55:00,
2015-07-02 05:00:00,59.3,54.5,29.73,NE,51,4.0,6.0,84,0.00,,,0.00,WeatherCatV2.01B39,2015-07-02 09:00:00,
2015-07-02 05:05:00,59.8,53.3,29.73,West,275,0.0,6.0,79,0.00,,,0.00,WeatherCatV2.01B39,2015-07-02 09:05:00,
2015-07-02 05:10:00,60.1,55.2,29.73,West,260,2.0,3.0,84,0.00,,,0.00,WeatherCatV2.01B39,2015-07-02 09:10:00,
2015-07-02 05:15:00,59.9,54.0,29.72,East,100,3.0,11.0,81,0.00,,,0.00,WeatherCatV2.01B39,2015-07-02 09:15:00,
2015-07-02 05:20:00,60.0,53.5,29.72,ESE,115,3.0,6.0,79,0.00,,,0.00,WeatherCatV2.01B39,2015-07-02 09:20:00,
2015-07-02 05:25:00,59.6,54.1,29.72,East,91,2.0,5.0,82,0.00,,,0.00,WeatherCatV2.01B39,2015-07-02 09:25:00,
2015-07-02 05:30:00,59.2,54.0,29.73,South,180,2.0,2.0,83,0.00,,,0.00,WeatherCatV2.01B39,2015-07-02 09:30:00,
2015-07-02 05:35:00,59.0,54.2,29.73,ESE,121,3.0,3.0,84,0.00,,,0.00,WeatherCatV2.01B39,2015-07-02 09:35:00,
2015-07-02 05:40:00,58.8,52.6,29.74,SSE,167,4.0,11.0,80,0.00,,,0.00,WeatherCatV2.01B39,2015-07-02 09:40:00,
2015-07-02 05:45:00,59.1,53.3,29.75,East,100,0.0,5.0,81,0.00,,,0.00,WeatherCatV2.01B39,2015-07-02 09:45:00,
2015-07-02 05:50:00,59.1,53.6,29.74,East,98,0.0,0.0,82,0.00,,,0.00,WeatherCatV2.01B39,2015-07-02 09:50:00,
2015-07-02 05:56:00,58.9,52.7,29.74,ESE,123,1.0,4.0,80,0.00,,,0.00,WeatherCatV2.01B39,2015-07-02 09:56:00,
2015-07-02 06:01:00,59.1,52.9,29.74,East,94,0.0,4.0,80,0.00,,,0.00,WeatherCatV2.01B39,2015-07-02 10:01:00,
2015-07-02 06:07:00,59.2,52.7,29.74,SE,129,2.0,2.0,79,0.00,,,0.00,WeatherCatV2.01B39,2015-07-02 10:07:00,
2015-07-02 06:12:00,59.1,54.6,29.75,ENE,75,4.0,4.0,85,0.00,,,0.00,WeatherCatV2.01B39,2015-07-02 10:12:00,
2015-07-02 06:17:00,58.7,53.5,29.75,ENE,65,0.0,2.0,83,0.00,,,0.00,WeatherCatV2.01B39,2015-07-02 10:17:00,
2015-07-02 06:22:00,58.5,53.3,29.75,ENE,61,3.0,6.0,83,0.00,,,0.00,WeatherCatV2.01B39,2015-07-02 10:22:00,
2015-07-02 06:27:00,58.6,52.8,29.75,ENE,67,1.0,3.0,81,0.00,,,0.00,WeatherCatV2.01B39,2015-07-02 10:27:00,
2015-07-02 06:32:00,58.8,52.0,29.76,SW,227,0.0,0.0,78,0.00,,,0.00,WeatherCatV2.01B39,2015-07-02 10:32:00,
2015-07-02 06:37:00,58.9,53.7,29.76,East,99,0.0,5.0,83,0.00,,,0.00,WeatherCatV2.01B39,2015-07-02 10:37:00,
2015-07-02 06:42:00,58.7,53.5,29.76,ENE,68,1.0,3.0,83,0.00,,,0.00,WeatherCatV2.01B39,2015-07-02 10:42:00,
2015-07-02 06:47:00,58.6,54.1,29.76,ESE,118,1.0,1.0,85,0.00,,,0.00,WeatherCatV2.01B39,2015-07-02 10:47:00,
2015-07-02 06:52:00,58.5,54.3,29.77,ESE,117,1.0,1.0,86,0.00,,,0.00,WeatherCatV2.01B39,2015-07-02 10:52:00,
2015-07-02 06:57:00,58.5,53.0,29.77,SE,126,0.0,5.0,82,0.00,,,0.00,WeatherCatV2.01B39,2015-07-02 10:57:00,
2015-07-02 07:02:00,58.9,53.7,29.77,East,90,0.0,4.0,83,0.00,,,0.00,WeatherCatV2.01B39,2015-07-02 11:02:00,
2015-07-02 07:07:00,59.1,54.6,29.77,ENE,74,1.0,1.0,85,0.00,,,0.00,WeatherCatV2.01B39,2015-07-02 11:07:00,
2015-07-02 07:12:00,59.0,52.2,29.76,East,96,2.0,4.0,78,0.00,,,0.00,WeatherCatV2.01B39,2015-07-02 11:12:00,
2015-07-02 07:17:00,59.3,52.1,29.77,SE,129,2.0,4.0,77,0.00,,,0.00,WeatherCatV2.01B39,2015-07-02 11:17:00,
2015-07-02 07:22:00,59.3,54.1,29.76,East,92,1.0,1.0,83,0.00,,,0.00,WeatherCatV2.01B39,2015-07-02 11:22:00,
2015-07-02 07:27:00,59.1,54.6,29.76,NW,325,1.0,1.0,85,0.00,,,0.00,WeatherCatV2.01B39,2015-07-02 11:27:00,
2015-07-02 07:32:00,59.1,53.9,29.76,NE,53,0.0,2.0,83,0.00,,,0.00,WeatherCatV2.01B39,2015-07-02 11:32:00,
2015-07-02 07:37:00,59.2,53.4,29.76,ENE,68,2.0,5.0,81,0.00,,,0.00,WeatherCatV2.01B39,2015-07-02 11:37:00,
2015-07-02 07:42:00,59.3,54.8,29.77,ENE,68,1.0,3.0,85,0.00,,,0.00,WeatherCatV2.01B39,2015-07-02 11:42:00,
2015-07-02 07:47:00,59.3,53.8,29.76,ENE,57,2.0,2.0,82,0.00,,,0.00,WeatherCatV2.01B39,2015-07-02 11:47:00,
2015-07-02 07:52:00,59.3,55.1,29.77,NE,55,0.0,3.0,86,0.00,,,0.00,WeatherCatV2.01B39,2015-07-02 11:52:00,
2015-07-02 07:57:00,59.2,55.3,29.77,NE,51,0.0,0.0,87,0.00,,,0.00,WeatherCatV2.01B39,2015-07-02 11:57:00,
2015-07-02 08:02:00,59.0,54.8,29.76,SE,126,1.0,4.0,86,0.00,,,0.00,WeatherCatV2.01B39,2015-07-02 12:02:00,
2015-07-02 08:07:00,59.1,52.6,29.76,ESE,119,4.0,6.0,79,0.00,,,0.00,WeatherCatV2.01B39,2015-07-02 12:07:00,
2015-07-02 08:12:00,59.6,53.8,29.77,ESE,105,2.0,2.0,81,0.00,,,0.00,WeatherCatV2.01B39,2015-07-02 12:12:00,
2015-07-02 08:17:00,59.6,54.4,29.77,ESE,106,1.0,3.0,83,0.00,,,0.00,WeatherCatV2.01B39,2015-07-02 12:17:00,
2015-07-02 08:22:00,59.6,55.1,29.77,ESE,106,2.0,3.0,85,0.00,,,0.00,WeatherCatV2.01B39,2015-07-02 12:22:00,
2015-07-02 08:27:00,59.6,55.4,29.77,South,176,0.0,1.0,86,0.00,,,0.00,WeatherCatV2.01B39,2015-07-02 12:27:00,
2015-07-02 08:32:00,59.6,55.7,29.77,South,180,0.0,1.0,87,0.00,,,0.00,WeatherCatV2.01B39,2015-07-02 12:32:00,
2015-07-02 08:37:00,59.6,55.4,29.78,South,182,0.0,0.0,86,0.00,,,0.00,WeatherCatV2.01B39,2015-07-02 12:37:00,
2015-07-02 08:42:00,59.6,55.4,29.78,South,182,0.0,0.0,86,0.00,,,0.00,WeatherCatV2.01B39,2015-07-02 12:42:00,
2015-07-02 08:48:00,59.8,54.6,29.78,SSW,192,2.0,3.0,83,0.00,,,0.00,WeatherCatV2.01B39,2015-07-02 12:48:00,
2015-07-02 08:53:00,60.0,54.8,29.78,SSW,192,0.0,1.0,83,0.00,,,0.00,WeatherCatV2.01B39,2015-07-02 12:53:00,
2015-07-02 08:59:00,60.0,54.8,29.77,ENE,69,0.0,4.0,83,0.00,,,0.00,WeatherCatV2.01B39,2015-07-02 12:59:00,
2015-07-02 09:04:00,60.2,55.3,29.77,ENE,78,0.0,4.0,84,0.00,,,0.00,WeatherCatV2.01B39,2015-07-02 13:04:00,
2015-07-02 09:09:00,60.5,54.6,29.77,NE,52,2.0,2.0,81,0.00,,,0.00,WeatherCatV2.01B39,2015-07-02 13:09:00,
2015-07-02 09:14:00,60.9,52.9,29.78,NE,47,0.0,1.0,75,0.00,,,0.00,WeatherCatV2.01B39,2015-07-02 13:14:00,
2015-07-02 09:19:00,61.2,57.0,29.78,ESE,117,0.0,0.0,86,0.00,,,0.00,WeatherCatV2.01B39,2015-07-02 13:19:00,
2015-07-02 09:24:00,61.4,54.5,29.79,SE,144,2.0,2.0,78,0.00,,,0.00,WeatherCatV2.01B39,2015-07-02 13:24:00,
2015-07-02 09:30:00,61.8,51.9,29.80,West,259,1.0,3.0,70,0.00,,,0.00,WeatherCatV2.01B39,2015-07-02 13:30:00,
2015-07-02 09:35:00,62.0,54.0,29.80,North,355,0.0,0.0,75,0.00,,,0.00,WeatherCatV2.01B39,2015-07-02 13:35:00,
2015-07-02 09:40:00,62.2,54.2,29.80,NW,311,3.0,5.0,75,0.00,,,0.00,WeatherCatV2.01B39,2015-07-02 13:40:00,
2015-07-02 09:45:00,62.6,54.6,29.80,ESE,114,0.0,2.0,75,0.00,,,0.00,WeatherCatV2.01B39,2015-07-02 13:45:00,
2015-07-02 09:50:00,62.6,53.4,29.80,SW,235,0.0,4.0,72,0.00,,,0.00,WeatherCatV2.01B39,2015-07-02 13:50:00,
2015-07-02 09:55:00,62.7,52.0,29.81,NE,55,0.0,3.0,68,0.00,,,0.00,WeatherCatV2.01B39,2015-07-02 13:55:00,
2015-07-02 10:00:00,62.8,54.4,29.80,NE,47,0.0,0.0,74,0.00,,,0.00,WeatherCatV2.01B39,2015-07-02 14:00:00,
2015-07-02 10:05:00,63.1,53.9,29.80,NNE,13,2.0,6.0,72,0.00,,,0.00,WeatherCatV2.01B39,2015-07-02 14:05:00,
2015-07-02 10:10:00,62.8,54.4,29.80,East,81,0.0,2.0,74,0.00,,,0.00,WeatherCatV2.01B39,2015-07-02 14:10:00,
2015-07-02 10:15:00,62.8,54.0,29.80,ESE,115,1.0,2.0,73,0.00,,,0.00,WeatherCatV2.01B39,2015-07-02 14:15:00,
2015-07-02 10:20:00,63.0,52.3,29.81,ESE,107,5.0,6.0,68,0.00,,,0.00,WeatherCatV2.01B39,2015-07-02 14:20:00,
2015-07-02 10:25:00,63.0,53.1,29.81,ENE,76,4.0,6.0,70,0.00,,,0.00,WeatherCatV2.01B39,2015-07-02 14:25:00,
2015-07-02 10:30:00,63.4,54.2,29.81,ESE,115,6.0,6.0,72,0.00,,,0.00,WeatherCatV2.01B39,2015-07-02 14:30:00,
2015-07-02 10:35:00,64.0,54.0,29.81,ESE,103,0.0,2.0,70,0.00,,,0.00,WeatherCatV2.01B39,2015-07-02 14:35:00,
2015-07-02 10:40:00,64.4,48.8,29.81,NW,325,0.0,1.0,57,0.00,,,0.00,WeatherCatV2.01B39,2015-07-02 14:40:00,
2015-07-02 10:45:00,64.4,52.0,29.81,ENE,67,2.0,2.0,64,0.00,,,0.00,WeatherCatV2.01B39,2015-07-02 14:45:00,
2015-07-02 10:50:00,64.1,54.9,29.81,ENE,69,0.0,0.0,72,0.00,,,0.00,WeatherCatV2.01B39,2015-07-02 14:50:00,
2015-07-02 10:55:00,63.9,52.7,29.81,ENE,78,0.0,1.0,67,0.00,,,0.00,WeatherCatV2.01B39,2015-07-02 14:55:00,
2015-07-02 11:00:00,63.9,51.9,29.82,WNW,296,0.0,1.0,65,0.00,,,0.00,WeatherCatV2.01B39,2015-07-02 15:00:00,
2015-07-02 11:06:00,63.9,51.0,29.82,ENE,69,4.0,5.0,63,0.00,,,0.01,WeatherCatV2.01B39,2015-07-02 15:06:00,
2015-07-02 11:11:00,63.6,51.2,29.83,ESE,112,0.0,2.0,64,0.00,,,0.01,WeatherCatV2.01B39,2015-07-02 15:11:00,
2015-07-02 11:16:00,63.9,53.9,29.82,ESE,110,1.0,1.0,70,0.00,,,0.01,WeatherCatV2.01B39,2015-07-02 15:16:00,
2015-07-02 11:21:00,64.1,53.7,29.82,ESE,105,0.0,1.0,69,0.00,,,0.01,WeatherCatV2.01B39,2015-07-02 15:21:00,
2015-07-02 11:26:00,64.4,52.0,29.82,ESE,109,4.0,4.0,64,0.00,,,0.01,WeatherCatV2.01B39,2015-07-02 15:26:00,
2015-07-02 11:31:00,65.0,51.7,29.82,SW,219,1.0,4.0,62,0.00,,,0.01,WeatherCatV2.01B39,2015-07-02 15:31:00,
2015-07-02 11:36:00,64.9,50.7,29.82,NNW,345,0.0,2.0,60,0.00,,,0.01,WeatherCatV2.01B39,2015-07-02 15:36:00,
2015-07-02 11:41:00,64.6,50.8,29.82,East,86,2.0,3.0,61,0.00,,,0.01,WeatherCatV2.01B39,2015-07-02 15:41:00,
2015-07-02 11:46:00,64.8,55.2,29.82,ESE,110,0.0,4.0,71,0.00,,,0.01,WeatherCatV2.01B39,2015-07-02 15:46:00,
2015-07-02 11:51:00,65.5,55.5,29.82,ESE,110,0.0,1.0,70,0.00,,,0.01,WeatherCatV2.01B39,2015-07-02 15:51:00,
2015-07-02 11:56:00,66.5,54.4,29.81,ESE,115,0.0,2.0,65,0.00,,,0.01,WeatherCatV2.01B39,2015-07-02 15:56:00,
2015-07-02 12:01:00,66.5,53.1,29.82,ESE,111,5.0,8.0,62,0.00,,,0.01,WeatherCatV2.01B39,2015-07-02 16:01:00,
2015-07-02 12:06:00,66.2,51.9,29.82,SE,145,1.0,4.0,60,0.00,,,0.01,WeatherCatV2.01B39,2015-07-02 16:06:00,
2015-07-02 12:11:00,66.7,53.7,29.82,SE,133,0.0,0.0,63,0.00,,,0.01,WeatherCatV2.01B39,2015-07-02 16:11:00,
2015-07-02 12:16:00,68.0,58.2,29.82,SE,134,0.0,2.0,71,0.00,,,0.01,WeatherCatV2.01B39,2015-07-02 16:16:00,
2015-07-02 12:21:00,68.6,55.0,29.82,SE,143,0.0,4.0,62,0.00,,,0.01,WeatherCatV2.01B39,2015-07-02 16:21:00,
2015-07-02 12:26:00,68.6,55.5,29.82,SSE,167,0.0,1.0,63,0.00,,,0.01,WeatherCatV2.01B39,2015-07-02 16:26:00,
2015-07-02 12:31:00,69.2,50.3,29.81,SE,143,0.0,4.0,51,0.00,,,0.01,WeatherCatV2.01B39,2015-07-02 16:31:00,
2015-07-02 12:36:00,69.6,55.1,29.81,SE,142,2.0,2.0,60,0.00,,,0.01,WeatherCatV2.01B39,2015-07-02 16:36:00,
2015-07-02 12:41:00,70.3,53.4,29.81,North,355,0.0,1.0,55,0.00,,,0.01,WeatherCatV2.01B39,2015-07-02 16:41:00,
2015-07-02 12:46:00,70.8,55.3,29.82,SE,134,0.0,7.0,58,0.00,,,0.01,WeatherCatV2.01B39,2015-07-02 16:46:00,
2015-07-02 12:51:00,69.9,53.0,29.82,ENE,73,0.0,2.0,55,0.00,,,0.01,WeatherCatV2.01B39,2015-07-02 16:51:00,
2015-07-02 12:56:00,69.2,56.9,29.82,ENE,71,0.0,0.0,65,0.00,,,0.01,WeatherCatV2.01B39,2015-07-02 16:56:00,
2015-07-02 13:01:00,68.7,54.2,29.82,SE,126,1.0,1.0,60,0.00,,,0.01,WeatherCatV2.01B39,2015-07-02 17:01:00,
2015-07-02 13:06:00,68.7,53.3,29.82,WNW,285,0.0,0.0,58,0.00,,,0.01,WeatherCatV2.01B39,2015-07-02 17:06:00,
2015-07-02 13:11:00,69.2,54.2,29.82,South,186,0.0,3.0,59,0.00,,,0.01,WeatherCatV2.01B39,2015-07-02 17:11:00,
2015-07-02 13:16:00,70.1,54.2,29.81,SSE,160,0.0,3.0,57,0.00,,,0.01,WeatherCatV2.01B39,2015-07-02 17:16:00,
2015-07-02 13:21:00,71.1,57.0,29.81,East,89,4.0,4.0,61,0.00,,,0.01,WeatherCatV2.01B39,2015-07-02 17:21:00,
2015-07-02 13:26:00,70.7,54.2,29.81,East,86,1.0,2.0,56,0.00,,,0.01,WeatherCatV2.01B39,2015-07-02 17:26:00,
2015-07-02 13:31:00,70.2,53.3,29.81,ENE,60,1.0,5.0,55,0.00,,,0.01,WeatherCatV2.01B39,2015-07-02 17:31:00,
2015-07-02 13:36:00,70.7,54.2,29.81,East,94,3.0,3.0,56,0.00,,,0.01,WeatherCatV2.01B39,2015-07-02 17:36:00,
2015-07-02 13:41:00,71.0,50.9,29.81,South,190,0.0,3.0,49,0.00,,,0.01,WeatherCatV2.01B39,2015-07-02 17:41:00,
2015-07-02 13:46:00,71.3,53.8,29.81,ESE,121,1.0,2.0,54,0.00,,,0.01,WeatherCatV2.01B39,2015-07-02 17:46:00,
2015-07-02 13:51:00,72.0,53.9,29.81,SE,133,0.0,0.0,53,0.00,,,0.01,WeatherCatV2.01B39,2015-07-02 17:51:00,
2015-07-02 13:56:00,71.9,48.2,29.81,East,88,1.0,6.0,43,0.00,,,0.01,WeatherCatV2.01B39,2015-07-02 17:56:00,
2015-07-02 14:02:00,71.2,54.2,29.81,ESE,103,0.0,3.0,55,0.00,,,0.01,WeatherCatV2.01B39,2015-07-02 18:02:00,
2015-07-02 14:07:00,71.4,52.8,29.81,ESE,117,2.0,3.0,52,0.00,,,0.01,WeatherCatV2.01B39,2015-07-02 18:07:00,
2015-07-02 14:12:00,71.3,49.4,29.82,ESE,117,4.0,6.0,46,0.00,,,0.01,WeatherCatV2.01B39,2015-07-02 18:12:00,
2015-07-02 14:17:00,71.4,51.8,29.82,SE,124,0.0,3.0,50,0.00,,,0.01,WeatherCatV2.01B39,2015-07-02 18:17:00,
2015-07-02 14:22:00,71.6,52.5,29.81,SE,142,0.0,3.0,51,0.00,,,0.01,WeatherCatV2.01B39,2015-07-02 18:22:00,
2015-07-02 14:27:00,72.1,56.5,29.82,SSE,157,2.0,3.0,58,0.00,,,0.01,WeatherCatV2.01B39,2015-07-02 18:27:00,
2015-07-02 14:32:00,72.0,50.1,29.82,ESE,107,1.0,5.0,46,0.00,,,0.01,WeatherCatV2.01B39,2015-07-02 18:32:00,
2015-07-02 14:37:00,71.7,50.4,29.82,ESE,121,2.0,6.0,47,0.00,,,0.01,WeatherCatV2.01B39,2015-07-02 18:37:00,
2015-07-02 14:42:00,71.4,51.2,29.82,NE,55,4.0,5.0,49,0.00,,,0.01,WeatherCatV2.01B39,2015-07-02 18:42:00,
2015-07-02 14:47:00,71.0,48.6,29.83,ENE,76,3.0,5.0,45,0.00,,,0.01,WeatherCatV2.01B39,2015-07-02 18:47:00,
2015-07-02 14:52:00,70.7,53.2,29.82,East,86,0.0,3.0,54,0.00,,,0.01,WeatherCatV2.01B39,2015-07-02 18:52:00,
2015-07-02 14:57:00,70.9,48.5,29.82,SE,127,0.0,7.0,45,0.00,,,0.01,WeatherCatV2.01B39,2015-07-02 18:57:00,
2015-07-02 15:02:00,70.9,48.5,29.82,East,96,4.0,5.0,45,0.00,,,0.01,WeatherCatV2.01B39,2015-07-02 19:02:00,
2015-07-02 15:07:00,71.0,46.7,29.82,ESE,110,4.0,10.0,42,0.00,,,0.01,WeatherCatV2.01B39,2015-07-02 19:07:00,
2015-07-02 15:12:00,70.9,47.9,29.82,ENE,60,2.0,2.0,44,0.00,,,0.01,WeatherCatV2.01B39,2015-07-02 19:12:00,
2015-07-02 15:17:00,71.2,55.2,29.82,SSE,155,2.0,2.0,57,0.00,,,0.01,WeatherCatV2.01B39,2015-07-02 19:17:00,
2015-07-02 15:22:00,71.7,54.7,29.83,WSW,242,1.0,3.0,55,0.00,,,0.01,WeatherCatV2.01B39,2015-07-02 19:22:00,
2015-07-02 15:27:00,72.3,52.0,29.83,NE,38,0.0,5.0,49,0.00,,,0.01,WeatherCatV2.01B39,2015-07-02 19:27:00,
2015-07-02 15:32:00,72.4,51.0,29.83,ENE,71,0.0,2.0,47,0.00,,,0.01,WeatherCatV2.01B39,2015-07-02 19:32:00,
2015-07-02 15:37:00,72.0,47.0,29.83,SE,146,0.0,4.0,41,0.00,,,0.01,WeatherCatV2.01B39,2015-07-02 19:37:00,